sensor_id;sensor_type;location;lat;lon;timestamp;pressure;altitude;pressure_sealevel;temperature;humidity
49342;BME280;35210;41.606;-87.602;2022-08-21T00:00:33;99243.38;;;26.17;88.58
49342;BME280;35210;41.606;-87.602;2022-08-21T00:03:05;99235.03;;;26.18;88.32
49342;BME280;35210;41.606;-87.602;2022-08-21T00:05:37;99230.06;;;26.15;88.56
49342;BME280;35210;41.606;-87.602;2022-08-21T00:08:08;99227.53;;;26.20;88.29
49342;BME280;35210;41.606;-87.602;2022-08-21T00:10:36;99236.41;;;26.28;88.13
49342;BME280;35210;41.606;-87.602;2022-08-21T00:13:05;99226.81;;;26.32;87.55
49342;BME280;35210;41.606;-87.602;2022-08-21T00:15:36;99230.28;;;26.39;87.38
49342;BME280;35210;41.606;-87.602;2022-08-21T00:18:06;99230.06;;;26.40;87.44
49342;BME280;35210;41.606;-87.602;2022-08-21T00:20:35;99245.09;;;26.36;87.73
49342;BME280;35210;41.606;-87.602;2022-08-21T00:23:03;99235.09;;;26.37;87.60
49342;BME280;35210;41.606;-87.602;2022-08-21T00:25:44;99234.88;;;26.38;87.48
49342;BME280;35210;41.606;-87.602;2022-08-21T00:28:15;99227.72;;;26.44;86.69
49342;BME280;35210;41.606;-87.602;2022-08-21T00:30:44;99231.03;;;26.46;87.04
49342;BME280;35210;41.606;-87.602;2022-08-21T00:33:12;99230.59;;;26.49;86.86
49342;BME280;35210;41.606;-87.602;2022-08-21T00:35:42;99235.16;;;26.48;87.28
49342;BME280;35210;41.606;-87.602;2022-08-21T00:38:10;99236.81;;;26.49;87.26
49342;BME280;35210;41.606;-87.602;2022-08-21T00:40:42;99231.84;;;26.46;87.15
49342;BME280;35210;41.606;-87.602;2022-08-21T00:43:12;99244.13;;;26.49;86.97
49342;BME280;35210;41.606;-87.602;2022-08-21T00:45:41;99245.56;;;26.51;86.91
49342;BME280;35210;41.606;-87.602;2022-08-21T00:48:09;99252.41;;;26.54;86.37
49342;BME280;35210;41.606;-87.602;2022-08-21T00:50:42;99257.59;;;26.56;86.47
49342;BME280;35210;41.606;-87.602;2022-08-21T00:53:11;99263.22;;;26.54;86.63
49342;BME280;35210;41.606;-87.602;2022-08-21T00:55:41;99260.66;;;26.41;87.08
49342;BME280;35210;41.606;-87.602;2022-08-21T00:58:11;99269.38;;;26.43;86.94
49342;BME280;35210;41.606;-87.602;2022-08-21T01:00:42;99261.09;;;26.38;87.35
49342;BME280;35210;41.606;-87.602;2022-08-21T01:03:14;99249.06;;;26.34;87.65
49342;BME280;35210;41.606;-87.602;2022-08-21T01:05:43;99251.09;;;26.38;87.42
49342;BME280;35210;41.606;-87.602;2022-08-21T01:08:13;99236.16;;;26.36;87.46
49342;BME280;35210;41.606;-87.602;2022-08-21T01:10:45;99233.44;;;26.36;87.35
49342;BME280;35210;41.606;-87.602;2022-08-21T01:13:16;99234.41;;;26.41;86.68
49342;BME280;35210;41.606;-87.602;2022-08-21T01:15:48;99226.91;;;26.43;86.21
49342;BME280;35210;41.606;-87.602;2022-08-21T01:18:20;99216.91;;;26.44;86.42
49342;BME280;35210;41.606;-87.602;2022-08-21T01:21:08;99210.72;;;26.37;86.94
49342;BME280;35210;41.606;-87.602;2022-08-21T01:23:39;99209.28;;;26.34;87.29
49342;BME280;35210;41.606;-87.602;2022-08-21T01:26:08;99204.94;;;26.33;87.32
49342;BME280;35210;41.606;-87.602;2022-08-21T01:28:41;99205.34;;;26.30;87.26
49342;BME280;35210;41.606;-87.602;2022-08-21T01:31:14;99222.00;;;26.34;86.77
49342;BME280;35210;41.606;-87.602;2022-08-21T01:33:42;99216.97;;;26.37;86.25
49342;BME280;35210;41.606;-87.602;2022-08-21T01:36:12;99227.41;;;26.34;86.18
49342;BME280;35210;41.606;-87.602;2022-08-21T01:38:40;99220.75;;;26.30;86.41
49342;BME280;35210;41.606;-87.602;2022-08-21T01:41:09;99235.56;;;26.27;86.68
49342;BME280;35210;41.606;-87.602;2022-08-21T01:43:39;99244.97;;;26.25;87.09
49342;BME280;35210;41.606;-87.602;2022-08-21T01:46:08;99239.41;;;26.19;87.32
49342;BME280;35210;41.606;-87.602;2022-08-21T01:48:38;99245.88;;;26.18;87.36
49342;BME280;35210;41.606;-87.602;2022-08-21T01:51:07;99249.00;;;26.15;87.67
49342;BME280;35210;41.606;-87.602;2022-08-21T01:53:37;99256.97;;;26.10;87.70
49342;BME280;35210;41.606;-87.602;2022-08-21T01:56:08;99262.00;;;26.07;87.86
49342;BME280;35210;41.606;-87.602;2022-08-21T01:58:37;99261.94;;;25.95;88.85
49342;BME280;35210;41.606;-87.602;2022-08-21T02:01:05;99269.50;;;25.86;89.21
49342;BME280;35210;41.606;-87.602;2022-08-21T02:03:33;99276.59;;;25.81;89.50
49342;BME280;35210;41.606;-87.602;2022-08-21T02:06:01;99288.47;;;25.80;89.85
49342;BME280;35210;41.606;-87.602;2022-08-21T02:08:29;99289.97;;;25.76;90.37
49342;BME280;35210;41.606;-87.602;2022-08-21T02:10:59;99293.72;;;25.75;90.35
49342;BME280;35210;41.606;-87.602;2022-08-21T02:13:27;99295.38;;;25.76;90.14
49342;BME280;35210;41.606;-87.602;2022-08-21T02:15:55;99291.63;;;25.77;88.98
49342;BME280;35210;41.606;-87.602;2022-08-21T02:18:23;99285.78;;;25.80;88.94
49342;BME280;35210;41.606;-87.602;2022-08-21T02:20:51;99278.72;;;25.79;88.79
49342;BME280;35210;41.606;-87.602;2022-08-21T02:23:19;99293.28;;;25.78;88.86
49342;BME280;35210;41.606;-87.602;2022-08-21T02:25:47;99289.53;;;25.79;88.77
49342;BME280;35210;41.606;-87.602;2022-08-21T02:28:17;99276.00;;;25.79;89.18
49342;BME280;35210;41.606;-87.602;2022-08-21T02:30:46;99276.22;;;25.77;89.34
49342;BME280;35210;41.606;-87.602;2022-08-21T02:33:15;99279.75;;;25.78;89.06
49342;BME280;35210;41.606;-87.602;2022-08-21T02:35:43;99274.34;;;25.78;88.80
49342;BME280;35210;41.606;-87.602;2022-08-21T02:38:15;99283.28;;;25.78;88.51
49342;BME280;35210;41.606;-87.602;2022-08-21T02:40:46;99279.53;;;25.79;88.36
49342;BME280;35210;41.606;-87.602;2022-08-21T02:43:16;99273.78;;;25.94;87.41
49342;BME280;35210;41.606;-87.602;2022-08-21T02:45:46;99277.81;;;25.85;87.64
49342;BME280;35210;41.606;-87.602;2022-08-21T02:48:15;99282.47;;;25.78;88.42
49342;BME280;35210;41.606;-87.602;2022-08-21T02:50:45;99285.00;;;25.73;88.69
49342;BME280;35210;41.606;-87.602;2022-08-21T02:53:14;99285.44;;;25.70;89.27
49342;BME280;35210;41.606;-87.602;2022-08-21T02:55:44;99284.63;;;25.63;89.77
49342;BME280;35210;41.606;-87.602;2022-08-21T02:58:17;99276.34;;;25.58;90.37
49342;BME280;35210;41.606;-87.602;2022-08-21T03:00:45;99270.31;;;25.55;90.40
49342;BME280;35210;41.606;-87.602;2022-08-21T03:03:13;99271.75;;;25.58;90.36
49342;BME280;35210;41.606;-87.602;2022-08-21T03:05:43;99270.97;;;25.51;90.48
49342;BME280;35210;41.606;-87.602;2022-08-21T03:08:13;99268.47;;;25.49;90.57
49342;BME280;35210;41.606;-87.602;2022-08-21T03:10:43;99272.44;;;25.47;90.70
49342;BME280;35210;41.606;-87.602;2022-08-21T03:13:14;99270.19;;;25.44;90.88
49342;BME280;35210;41.606;-87.602;2022-08-21T03:15:44;99262.28;;;25.42;90.74
49342;BME280;35210;41.606;-87.602;2022-08-21T03:18:12;99265.22;;;25.41;91.25
49342;BME280;35210;41.606;-87.602;2022-08-21T03:20:41;99261.47;;;25.42;91.48
49342;BME280;35210;41.606;-87.602;2022-08-21T03:23:11;99268.13;;;25.39;91.83
49342;BME280;35210;41.606;-87.602;2022-08-21T03:25:40;99273.56;;;25.33;92.09
49342;BME280;35210;41.606;-87.602;2022-08-21T03:28:10;99269.44;;;25.30;92.35
49342;BME280;35210;41.606;-87.602;2022-08-21T03:30:38;99279.03;;;25.26;92.66
49342;BME280;35210;41.606;-87.602;2022-08-21T03:33:08;99281.72;;;25.26;92.42
49342;BME280;35210;41.606;-87.602;2022-08-21T03:35:36;99286.53;;;25.24;92.35
49342;BME280;35210;41.606;-87.602;2022-08-21T03:38:06;99284.91;;;25.16;93.15
49342;BME280;35210;41.606;-87.602;2022-08-21T03:40:35;99288.88;;;25.14;93.64
49342;BME280;35210;41.606;-87.602;2022-08-21T03:43:03;99284.78;;;25.05;94.58
49342;BME280;35210;41.606;-87.602;2022-08-21T03:45:35;99286.25;;;25.01;94.83
49342;BME280;35210;41.606;-87.602;2022-08-21T03:48:05;99284.16;;;25.03;94.90
49342;BME280;35210;41.606;-87.602;2022-08-21T03:50:37;99288.31;;;25.05;94.96
49342;BME280;35210;41.606;-87.602;2022-08-21T03:53:07;99281.84;;;25.06;95.06
49342;BME280;35210;41.606;-87.602;2022-08-21T03:55:35;99282.09;;;24.92;96.79
49342;BME280;35210;41.606;-87.602;2022-08-21T03:58:03;99277.13;;;24.88;96.88
49342;BME280;35210;41.606;-87.602;2022-08-21T04:00:32;99291.88;;;24.86;97.52
49342;BME280;35210;41.606;-87.602;2022-08-21T04:03:00;99292.38;;;24.63;99.24
49342;BME280;35210;41.606;-87.602;2022-08-21T04:05:29;99292.22;;;24.45;100.00
49342;BME280;35210;41.606;-87.602;2022-08-21T04:08:03;99285.59;;;24.14;100.00
49342;BME280;35210;41.606;-87.602;2022-08-21T04:10:33;99281.22;;;24.20;100.00
49342;BME280;35210;41.606;-87.602;2022-08-21T04:13:02;99276.03;;;24.25;100.00
49342;BME280;35210;41.606;-87.602;2022-08-21T04:15:30;99273.97;;;24.34;100.00
49342;BME280;35210;41.606;-87.602;2022-08-21T04:17:58;99273.97;;;24.34;99.48
49342;BME280;35210;41.606;-87.602;2022-08-21T04:20:26;99277.72;;;24.33;98.47
49342;BME280;35210;41.606;-87.602;2022-08-21T04:22:55;99281.22;;;24.40;97.14
49342;BME280;35210;41.606;-87.602;2022-08-21T04:25:25;99277.06;;;24.44;96.64
49342;BME280;35210;41.606;-87.602;2022-08-21T04:27:54;99283.31;;;24.38;93.44
49342;BME280;35210;41.606;-87.602;2022-08-21T04:30:23;99275.03;;;24.33;92.45
49342;BME280;35210;41.606;-87.602;2022-08-21T04:32:51;99268.78;;;24.39;92.73
49342;BME280;35210;41.606;-87.602;2022-08-21T04:35:21;99265.47;;;24.37;90.75
49342;BME280;35210;41.606;-87.602;2022-08-21T04:37:50;99267.34;;;24.36;90.73
49342;BME280;35210;41.606;-87.602;2022-08-21T04:40:20;99274.78;;;24.41;90.32
49342;BME280;35210;41.606;-87.602;2022-08-21T04:42:51;99268.38;;;24.22;89.83
49342;BME280;35210;41.606;-87.602;2022-08-21T04:45:22;99268.59;;;24.07;90.53
49342;BME280;35210;41.606;-87.602;2022-08-21T04:47:51;99265.69;;;24.02;90.19
49342;BME280;35210;41.606;-87.602;2022-08-21T04:50:21;99268.38;;;24.09;90.40
49342;BME280;35210;41.606;-87.602;2022-08-21T04:52:50;99276.66;;;24.14;90.44
49342;BME280;35210;41.606;-87.602;2022-08-21T04:55:19;99278.94;;;24.17;90.63
49342;BME280;35210;41.606;-87.602;2022-08-21T04:57:50;99277.69;;;24.19;90.50
49342;BME280;35210;41.606;-87.602;2022-08-21T05:00:20;99270.03;;;24.23;90.40
49342;BME280;35210;41.606;-87.602;2022-08-21T05:02:51;99277.53;;;24.28;90.17
49342;BME280;35210;41.606;-87.602;2022-08-21T05:05:22;99277.72;;;24.33;89.72
49342;BME280;35210;41.606;-87.602;2022-08-21T05:07:52;99279.78;;;24.31;88.79
49342;BME280;35210;41.606;-87.602;2022-08-21T05:10:22;99275.66;;;24.28;88.93
49342;BME280;35210;41.606;-87.602;2022-08-21T05:12:51;99280.22;;;24.28;88.99
49342;BME280;35210;41.606;-87.602;2022-08-21T05:15:20;99283.75;;;24.28;88.29
49342;BME280;35210;41.606;-87.602;2022-08-21T05:17:48;99288.94;;;24.30;87.75
49342;BME280;35210;41.606;-87.602;2022-08-21T05:20:16;99277.91;;;24.11;88.08
49342;BME280;35210;41.606;-87.602;2022-08-21T05:22:46;99284.34;;;23.97;88.87
49342;BME280;35210;41.606;-87.602;2022-08-21T05:25:14;99280.63;;;23.98;88.62
49342;BME280;35210;41.606;-87.602;2022-08-21T05:27:42;99283.72;;;24.02;88.58
49342;BME280;35210;41.606;-87.602;2022-08-21T05:30:13;99278.34;;;23.95;88.81
49342;BME280;35210;41.606;-87.602;2022-08-21T05:32:41;99274.41;;;23.91;89.21
49342;BME280;35210;41.606;-87.602;2022-08-21T05:35:09;99270.88;;;23.90;89.36
49342;BME280;35210;41.606;-87.602;2022-08-21T05:37:37;99267.97;;;23.85;89.29
49342;BME280;35210;41.606;-87.602;2022-08-21T05:40:08;99277.09;;;23.84;89.41
49342;BME280;35210;41.606;-87.602;2022-08-21T05:42:36;99277.94;;;23.85;88.96
49342;BME280;35210;41.606;-87.602;2022-08-21T05:45:06;99277.94;;;23.85;89.10
49342;BME280;35210;41.606;-87.602;2022-08-21T05:47:37;99281.03;;;23.82;89.59
49342;BME280;35210;41.606;-87.602;2022-08-21T05:50:06;99281.03;;;23.82;89.78
49342;BME280;35210;41.606;-87.602;2022-08-21T05:52:34;99275.03;;;23.80;89.75
49342;BME280;35210;41.606;-87.602;2022-08-21T05:55:04;99278.97;;;23.84;89.46
49342;BME280;35210;41.606;-87.602;2022-08-21T05:57:32;99269.84;;;23.85;89.36
49342;BME280;35210;41.606;-87.602;2022-08-21T06:00:01;99264.44;;;23.85;89.55
49342;BME280;35210;41.606;-87.602;2022-08-21T06:02:29;99281.66;;;23.84;89.17
49342;BME280;35210;41.606;-87.602;2022-08-21T06:04:59;99282.91;;;23.81;89.04
49342;BME280;35210;41.606;-87.602;2022-08-21T06:07:28;99271.50;;;23.79;89.07
49342;BME280;35210;41.606;-87.602;2022-08-21T06:09:56;99267.13;;;23.78;89.43
49342;BME280;35210;41.606;-87.602;2022-08-21T06:12:24;99263.84;;;23.76;89.31
49342;BME280;35210;41.606;-87.602;2022-08-21T06:14:52;99264.44;;;23.78;88.86
49342;BME280;35210;41.606;-87.602;2022-08-21T06:17:20;99267.78;;;23.74;89.09
49342;BME280;35210;41.606;-87.602;2022-08-21T06:19:51;99257.84;;;23.68;89.41
49342;BME280;35210;41.606;-87.602;2022-08-21T06:22:22;99260.53;;;23.68;89.27
49342;BME280;35210;41.606;-87.602;2022-08-21T06:24:50;99256.16;;;23.67;88.89
49342;BME280;35210;41.606;-87.602;2022-08-21T06:27:18;99257.22;;;23.66;89.32
49342;BME280;35210;41.606;-87.602;2022-08-21T06:29:46;99267.38;;;23.64;89.26
49342;BME280;35210;41.606;-87.602;2022-08-21T06:32:14;99256.38;;;23.58;89.44
49342;BME280;35210;41.606;-87.602;2022-08-21T06:34:42;99260.69;;;23.53;89.58
49342;BME280;35210;41.606;-87.602;2022-08-21T06:37:10;99259.44;;;23.49;90.14
49342;BME280;35210;41.606;-87.602;2022-08-21T06:39:40;99252.38;;;23.48;90.89
49342;BME280;35210;41.606;-87.602;2022-08-21T06:42:13;99251.34;;;23.42;90.59
49342;BME280;35210;41.606;-87.602;2022-08-21T06:44:42;99251.94;;;23.24;91.47
49342;BME280;35210;41.606;-87.602;2022-08-21T06:47:10;99256.38;;;22.84;93.49
49342;BME280;35210;41.606;-87.602;2022-08-21T06:49:39;99253.06;;;22.82;94.29
49342;BME280;35210;41.606;-87.602;2022-08-21T06:52:08;99258.31;;;22.62;94.88
49342;BME280;35210;41.606;-87.602;2022-08-21T06:54:39;99261.63;;;22.58;95.43
49342;BME280;35210;41.606;-87.602;2022-08-21T06:57:07;99268.50;;;22.26;97.29
49342;BME280;35210;41.606;-87.602;2022-08-21T06:59:35;99267.50;;;22.40;97.07
49342;BME280;35210;41.606;-87.602;2022-08-21T07:02:04;99264.91;;;22.53;96.30
49342;BME280;35210;41.606;-87.602;2022-08-21T07:04:32;99266.38;;;22.56;96.09
49342;BME280;35210;41.606;-87.602;2022-08-21T07:07:00;99262.25;;;22.60;96.00
49342;BME280;35210;41.606;-87.602;2022-08-21T07:09:28;99257.72;;;22.67;96.06
49342;BME280;35210;41.606;-87.602;2022-08-21T07:11:58;99246.78;;;22.75;95.40
49342;BME280;35210;41.606;-87.602;2022-08-21T07:14:26;99242.28;;;22.82;94.83
49342;BME280;35210;41.606;-87.602;2022-08-21T07:16:54;99241.25;;;22.83;94.78
49342;BME280;35210;41.606;-87.602;2022-08-21T07:19:22;99244.19;;;22.88;94.81
49342;BME280;35210;41.606;-87.602;2022-08-21T07:21:50;99240.06;;;22.92;94.75
49342;BME280;35210;41.606;-87.602;2022-08-21T07:24:19;99250.22;;;22.97;94.45
49342;BME280;35210;41.606;-87.602;2022-08-21T07:26:48;99252.31;;;23.02;94.17
49342;BME280;35210;41.606;-87.602;2022-08-21T07:29:18;99252.69;;;23.05;94.00
49342;BME280;35210;41.606;-87.602;2022-08-21T07:31:46;99252.28;;;23.08;93.79
49342;BME280;35210;41.606;-87.602;2022-08-21T07:34:14;99250.66;;;23.14;93.53
49342;BME280;35210;41.606;-87.602;2022-08-21T07:36:43;99247.75;;;23.15;93.46
49342;BME280;35210;41.606;-87.602;2022-08-21T07:39:12;99248.78;;;23.14;92.42
49342;BME280;35210;41.606;-87.602;2022-08-21T07:41:40;99252.91;;;23.04;92.68
49342;BME280;35210;41.606;-87.602;2022-08-21T07:44:08;99253.34;;;23.01;93.11
49342;BME280;35210;41.606;-87.602;2022-08-21T07:46:38;99260.97;;;23.04;93.37
49342;BME280;35210;41.606;-87.602;2022-08-21T07:49:06;99260.16;;;23.03;93.19
49342;BME280;35210;41.606;-87.602;2022-08-21T07:51:34;99262.22;;;22.94;93.04
49342;BME280;35210;41.606;-87.602;2022-08-21T07:54:03;99276.53;;;22.95;93.26
49342;BME280;35210;41.606;-87.602;2022-08-21T07:56:31;99267.97;;;22.85;93.53
49342;BME280;35210;41.606;-87.602;2022-08-21T07:58:59;99265.31;;;22.91;93.76
49342;BME280;35210;41.606;-87.602;2022-08-21T08:01:29;99264.28;;;22.92;93.74
49342;BME280;35210;41.606;-87.602;2022-08-21T08:03:58;99263.25;;;22.93;93.98
49342;BME280;35210;41.606;-87.602;2022-08-21T08:06:26;99276.72;;;22.93;93.97
49342;BME280;35210;41.606;-87.602;2022-08-21T08:08:55;99274.66;;;22.96;94.16
49342;BME280;35210;41.606;-87.602;2022-08-21T08:11:23;99273.63;;;22.97;93.94
49342;BME280;35210;41.606;-87.602;2022-08-21T08:13:52;99279.63;;;22.99;93.74
49342;BME280;35210;41.606;-87.602;2022-08-21T08:16:20;99273.41;;;22.98;93.51
49342;BME280;35210;41.606;-87.602;2022-08-21T08:18:48;99281.78;;;22.75;94.70
49342;BME280;35210;41.606;-87.602;2022-08-21T08:21:19;99270.78;;;22.70;95.73
49342;BME280;35210;41.606;-87.602;2022-08-21T08:23:47;99265.88;;;22.46;97.35
49342;BME280;35210;41.606;-87.602;2022-08-21T08:26:16;99254.06;;;22.40;97.20
49342;BME280;35210;41.606;-87.602;2022-08-21T08:28:46;99256.78;;;22.47;97.41
49342;BME280;35210;41.606;-87.602;2022-08-21T08:31:15;99255.25;;;22.24;98.96
49342;BME280;35210;41.606;-87.602;2022-08-21T08:33:43;99255.03;;;22.26;98.53
49342;BME280;35210;41.606;-87.602;2022-08-21T08:36:14;99262.91;;;22.27;98.68
49342;BME280;35210;41.606;-87.602;2022-08-21T08:38:45;99258.56;;;22.26;98.66
49342;BME280;35210;41.606;-87.602;2022-08-21T08:41:15;99250.69;;;22.32;98.27
49342;BME280;35210;41.606;-87.602;2022-08-21T08:43:50;99250.28;;;22.00;99.94
49342;BME280;35210;41.606;-87.602;2022-08-21T08:46:24;99256.13;;;21.82;100.00
49342;BME280;35210;41.606;-87.602;2022-08-21T08:48:58;99253.34;;;21.97;100.00
49342;BME280;35210;41.606;-87.602;2022-08-21T08:51:37;99252.47;;;21.90;100.00
49342;BME280;35210;41.606;-87.602;2022-08-21T08:54:12;99252.28;;;21.91;100.00
49342;BME280;35210;41.606;-87.602;2022-08-21T08:56:43;99250.25;;;21.72;100.00
49342;BME280;35210;41.606;-87.602;2022-08-21T08:59:16;99247.03;;;21.83;100.00
49342;BME280;35210;41.606;-87.602;2022-08-21T09:01:45;99245.72;;;21.73;100.00
49342;BME280;35210;41.606;-87.602;2022-08-21T09:04:18;99250.25;;;21.72;100.00
49342;BME280;35210;41.606;-87.602;2022-08-21T09:07:00;99244.31;;;21.77;100.00
49342;BME280;35210;41.606;-87.602;2022-08-21T09:09:41;99230.88;;;21.77;100.00
49342;BME280;35210;41.606;-87.602;2022-08-21T09:12:19;99239.88;;;21.90;100.00
49342;BME280;35210;41.606;-87.602;2022-08-21T09:15:01;99242.41;;;21.98;100.00
49342;BME280;35210;41.606;-87.602;2022-08-21T09:17:53;99233.59;;;22.05;100.00
49342;BME280;35210;41.606;-87.602;2022-08-21T09:20:32;99231.19;;;22.16;100.00
49342;BME280;35210;41.606;-87.602;2022-08-21T09:23:17;99228.75;;;22.21;100.00
49342;BME280;35210;41.606;-87.602;2022-08-21T09:25:58;99240.75;;;22.25;99.75
49342;BME280;35210;41.606;-87.602;2022-08-21T09:28:33;99233.31;;;22.27;99.49
49342;BME280;35210;41.606;-87.602;2022-08-21T09:31:04;99231.66;;;22.33;99.33
49342;BME280;35210;41.606;-87.602;2022-08-21T09:33:33;99233.38;;;22.41;98.55
49342;BME280;35210;41.606;-87.602;2022-08-21T09:36:02;99236.22;;;22.33;98.81
49342;BME280;35210;41.606;-87.602;2022-08-21T09:38:32;99230.84;;;22.33;98.51
49342;BME280;35210;41.606;-87.602;2022-08-21T09:41:06;99237.50;;;22.37;98.43
49342;BME280;35210;41.606;-87.602;2022-08-21T09:43:34;99236.63;;;22.29;98.85
49342;BME280;35210;41.606;-87.602;2022-08-21T09:46:09;99238.91;;;22.33;99.04
49342;BME280;35210;41.606;-87.602;2022-08-21T09:48:43;99238.06;;;21.97;100.00
49342;BME280;35210;41.606;-87.602;2022-08-21T09:51:14;99231.19;;;22.16;99.83
49342;BME280;35210;41.606;-87.602;2022-08-21T09:53:45;99229.75;;;22.20;99.59
49342;BME280;35210;41.606;-87.602;2022-08-21T09:56:25;99228.09;;;22.19;100.00
49342;BME280;35210;41.606;-87.602;2022-08-21T09:59:18;99229.56;;;22.22;100.00
49342;BME280;35210;41.606;-87.602;2022-08-21T10:01:48;99244.09;;;22.27;100.00
49342;BME280;35210;41.606;-87.602;2022-08-21T10:04:21;99236.22;;;22.33;99.68
49342;BME280;35210;41.606;-87.602;2022-08-21T10:06:50;99241.00;;;22.37;99.59
49342;BME280;35210;41.606;-87.602;2022-08-21T10:09:20;99240.19;;;22.37;99.38
49342;BME280;35210;41.606;-87.602;2022-08-21T10:12:00;99242.22;;;22.35;99.49
49342;BME280;35210;41.606;-87.602;2022-08-21T10:14:46;99241.22;;;22.36;100.00
49342;BME280;35210;41.606;-87.602;2022-08-21T10:17:25;99231.28;;;22.36;100.00
49342;BME280;35210;41.606;-87.602;2022-08-21T10:20:00;99228.81;;;22.41;99.52
49342;BME280;35210;41.606;-87.602;2022-08-21T10:22:40;99235.03;;;22.42;99.55
49342;BME280;35210;41.606;-87.602;2022-08-21T10:25:19;99236.28;;;22.46;99.81
49342;BME280;35210;41.606;-87.602;2022-08-21T10:27:59;99237.56;;;22.50;99.50
49342;BME280;35210;41.606;-87.602;2022-08-21T10:30:38;99237.34;;;22.51;99.47
49342;BME280;35210;41.606;-87.602;2022-08-21T10:33:20;99235.91;;;22.49;99.07
49342;BME280;35210;41.606;-87.602;2022-08-21T10:35:54;99240.88;;;22.52;98.54
49342;BME280;35210;41.606;-87.602;2022-08-21T10:38:58;99249.97;;;22.51;98.49
49342;BME280;35210;41.606;-87.602;2022-08-21T10:41:43;99252.03;;;22.49;98.77
49342;BME280;35210;41.606;-87.602;2022-08-21T10:44:26;99256.16;;;22.45;99.35
49342;BME280;35210;41.606;-87.602;2022-08-21T10:47:02;99260.91;;;22.43;99.52
49342;BME280;35210;41.606;-87.602;2022-08-21T10:49:39;99258.84;;;22.45;99.09
49342;BME280;35210;41.606;-87.602;2022-08-21T10:52:28;99259.47;;;22.47;99.18
49342;BME280;35210;41.606;-87.602;2022-08-21T10:55:04;99254.50;;;22.44;99.59
49342;BME280;35210;41.606;-87.602;2022-08-21T10:57:41;99261.94;;;22.42;99.69
49342;BME280;35210;41.606;-87.602;2022-08-21T11:00:16;99264.00;;;22.40;99.13
49342;BME280;35210;41.606;-87.602;2022-08-21T11:02:50;99257.59;;;22.41;99.11
49342;BME280;35210;41.606;-87.602;2022-08-21T11:05:25;99258.63;;;22.40;99.22
49342;BME280;35210;41.606;-87.602;2022-08-21T11:08:02;99269.38;;;22.40;99.63
49342;BME280;35210;41.606;-87.602;2022-08-21T11:10:35;99269.19;;;22.41;99.47
49342;BME280;35210;41.606;-87.602;2022-08-21T11:13:08;99279.09;;;22.41;99.67
49342;BME280;35210;41.606;-87.602;2022-08-21T11:15:50;99287.41;;;22.46;99.20
49342;BME280;35210;41.606;-87.602;2022-08-21T11:18:32;99295.50;;;22.46;99.32
49342;BME280;35210;41.606;-87.602;2022-08-21T11:21:08;99294.66;;;22.45;98.79
49342;BME280;35210;41.606;-87.602;2022-08-21T11:23:45;99298.19;;;22.46;99.24
49342;BME280;35210;41.606;-87.602;2022-08-21T11:26:19;99297.53;;;22.44;99.30
49342;BME280;35210;41.606;-87.602;2022-08-21T11:28:55;99296.50;;;22.45;99.38
49342;BME280;35210;41.606;-87.602;2022-08-21T11:31:36;99297.16;;;22.47;99.20
49342;BME280;35210;41.606;-87.602;2022-08-21T11:34:18;99291.81;;;22.53;98.42
49342;BME280;35210;41.606;-87.602;2022-08-21T11:36:57;99303.41;;;22.54;98.36
49342;BME280;35210;41.606;-87.602;2022-08-21T11:39:37;99306.28;;;22.52;98.80
49342;BME280;35210;41.606;-87.602;2022-08-21T11:42:14;99307.13;;;22.53;99.15
49342;BME280;35210;41.606;-87.602;2022-08-21T11:44:49;99310.00;;;22.51;98.89
49342;BME280;35210;41.606;-87.602;2022-08-21T11:47:32;99314.16;;;22.54;99.02
49342;BME280;35210;41.606;-87.602;2022-08-21T11:50:14;99315.00;;;22.54;99.15
49342;BME280;35210;41.606;-87.602;2022-08-21T11:52:47;99318.72;;;22.53;99.02
49342;BME280;35210;41.606;-87.602;2022-08-21T11:55:19;99318.31;;;22.56;98.76
49342;BME280;35210;41.606;-87.602;2022-08-21T11:57:55;99320.81;;;22.58;98.76
49342;BME280;35210;41.606;-87.602;2022-08-21T12:00:27;99321.22;;;22.55;98.81
49342;BME280;35210;41.606;-87.602;2022-08-21T12:03:07;99327.22;;;22.57;98.69
49342;BME280;35210;41.606;-87.602;2022-08-21T12:05:40;99327.44;;;22.55;98.62
49342;BME280;35210;41.606;-87.602;2022-08-21T12:08:14;99327.00;;;22.52;98.74
49342;BME280;35210;41.606;-87.602;2022-08-21T12:10:58;99328.66;;;22.53;98.98
49342;BME280;35210;41.606;-87.602;2022-08-21T12:13:28;99331.53;;;22.51;99.13
49342;BME280;35210;41.606;-87.602;2022-08-21T12:16:06;99338.63;;;22.59;98.89
49342;BME280;35210;41.606;-87.602;2022-08-21T12:18:36;99351.44;;;22.57;98.68
49342;BME280;35210;41.606;-87.602;2022-08-21T12:21:19;99357.22;;;22.54;98.61
49342;BME280;35210;41.606;-87.602;2022-08-21T12:24:01;99355.94;;;22.50;98.84
49342;BME280;35210;41.606;-87.602;2022-08-21T12:26:31;99354.69;;;22.46;99.04
49342;BME280;35210;41.606;-87.602;2022-08-21T12:29:11;99349.69;;;22.43;99.28
49342;BME280;35210;41.606;-87.602;2022-08-21T12:31:55;99363.91;;;22.37;100.00
49342;BME280;35210;41.606;-87.602;2022-08-21T12:34:35;99364.38;;;22.40;100.00
49342;BME280;35210;41.606;-87.602;2022-08-21T12:37:09;99371.22;;;22.43;100.00
49342;BME280;35210;41.606;-87.602;2022-08-21T12:39:45;99370.03;;;22.52;100.00
49342;BME280;35210;41.606;-87.602;2022-08-21T12:42:18;99370.03;;;22.52;100.00
49342;BME280;35210;41.606;-87.602;2022-08-21T12:44:50;99375.03;;;22.55;100.00
49342;BME280;35210;41.606;-87.602;2022-08-21T12:47:26;99372.97;;;22.57;100.00
49342;BME280;35210;41.606;-87.602;2022-08-21T12:50:02;99384.38;;;22.59;99.97
49342;BME280;35210;41.606;-87.602;2022-08-21T12:52:35;99386.69;;;22.62;99.69
49342;BME280;35210;41.606;-87.602;2022-08-21T12:55:06;99384.22;;;22.67;99.82
49342;BME280;35210;41.606;-87.602;2022-08-21T12:57:36;99392.31;;;22.67;99.97
49342;BME280;35210;41.606;-87.602;2022-08-21T13:00:08;99385.50;;;22.71;99.73